Time;durP1;ratioP1;P1;durP2;ratioP2;P2;SDS_P1;SDS_P2;PMS_P1;PMS_P2;Temp;Humidity;BMP_temperature;BMP_pressure;BME280_temperature;BME280_humidity;BME280_pressure;Samples;Min_cycle;Max_cycle;Signal;HPM_P1;HPM_P2
2022/05/19 00:01:04;;;;;;;2.27;2.17;;;17.00;99.90;;;;;;5080087;28;20683;-84
2022/05/19 00:03:33;;;;;;;1.63;1.53;;;16.90;99.90;;;;;;5077202;28;20639;-84
2022/05/19 00:06:02;;;;;;;3.87;1.97;;;16.80;99.90;;;;;;5079858;28;20633;-84
2022/05/19 00:08:29;;;;;;;2.30;2.10;;;16.80;99.90;;;;;;5080546;28;20704;-84
2022/05/19 00:10:58;;;;;;;2.03;1.87;;;16.80;99.90;;;;;;5083921;28;20953;-84
2022/05/19 00:13:25;;;;;;;2.20;2.00;;;16.80;99.90;;;;;;5081757;28;20623;-84
2022/05/19 00:15:52;;;;;;;4.50;2.30;;;16.80;99.90;;;;;;5082788;28;20678;-84
2022/05/19 00:18:19;;;;;;;2.27;1.80;;;16.80;99.90;;;;;;5081740;28;21211;-83
2022/05/19 00:20:46;;;;;;;2.30;2.10;;;16.70;99.90;;;;;;5078182;28;20641;-83
2022/05/19 00:23:15;;;;;;;4.83;3.60;;;16.70;99.90;;;;;;5082631;28;21103;-83
2022/05/19 00:25:42;;;;;;;2.23;1.50;;;16.70;99.90;;;;;;5080767;28;20785;-83
2022/05/19 00:28:09;;;;;;;1.90;1.80;;;16.60;99.90;;;;;;5083041;28;20635;-83
2022/05/19 00:30:36;;;;;;;1.73;1.60;;;16.50;99.90;;;;;;5079735;28;20690;-84
2022/05/19 00:33:03;;;;;;;2.13;1.93;;;16.50;99.90;;;;;;5084167;28;20624;-85
2022/05/19 00:35:30;;;;;;;2.40;2.20;;;16.40;99.90;;;;;;5084066;28;20677;-84
2022/05/19 00:37:57;;;;;;;2.43;1.97;;;16.40;99.90;;;;;;5082204;28;21174;-83
2022/05/19 00:40:26;;;;;;;2.43;1.90;;;16.30;99.90;;;;;;5077079;28;20653;-84
2022/05/19 00:42:53;;;;;;;3.53;2.00;;;16.30;99.90;;;;;;5082998;28;20623;-83
2022/05/19 00:45:22;;;;;;;3.17;2.33;;;16.20;99.90;;;;;;5079689;28;20624;-83
2022/05/19 00:47:53;;;;;;;2.13;2.00;;;16.10;99.90;;;;;;5082890;28;20632;-83
2022/05/19 00:50:23;;;;;;;2.37;2.13;;;16.20;99.90;;;;;;5082639;28;20758;-83
2022/05/19 00:52:51;;;;;;;5.00;2.13;;;16.20;99.90;;;;;;5077729;28;20655;-83
2022/05/19 00:55:23;;;;;;;3.03;2.23;;;16.10;99.90;;;;;;5082012;28;20620;-84
2022/05/19 00:57:56;;;;;;;2.30;2.20;;;16.10;99.90;;;;;;5083871;28;20957;-84
2022/05/19 01:00:24;;;;;;;2.17;1.97;;;16.00;99.90;;;;;;5083977;28;20982;-83
2022/05/19 01:02:55;;;;;;;2.80;2.50;;;16.00;99.90;;;;;;5086221;28;20639;-84
2022/05/19 01:05:28;;;;;;;2.30;2.07;;;15.90;99.90;;;;;;5087034;28;20949;-83
2022/05/19 01:07:59;;;;;;;2.20;2.10;;;15.90;99.90;;;;;;5083576;28;20981;-83
2022/05/19 01:10:26;;;;;;;2.90;1.90;;;15.80;99.90;;;;;;5082996;28;21138;-84
2022/05/19 01:12:55;;;;;;;1.97;1.80;;;15.80;99.90;;;;;;5084924;28;20677;-83
2022/05/19 01:15:23;;;;;;;2.60;2.07;;;15.70;99.90;;;;;;5080496;28;21190;-83
2022/05/19 01:17:50;;;;;;;1.97;1.60;;;15.70;99.90;;;;;;5086421;28;20627;-83
2022/05/19 01:20:19;;;;;;;2.60;2.40;;;15.70;99.90;;;;;;5082729;28;20652;-83
2022/05/19 01:22:53;;;;;;;2.20;1.83;;;15.60;99.90;;;;;;5083946;28;20635;-83
2022/05/19 01:25:27;;;;;;;2.47;2.03;;;15.50;99.90;;;;;;5084048;28;20667;-83
2022/05/19 01:27:55;;;;;;;2.00;1.90;;;15.50;99.90;;;;;;5085136;28;20741;-83
2022/05/19 01:30:23;;;;;;;2.60;1.93;;;15.40;99.90;;;;;;5085535;28;20672;-84
2022/05/19 01:32:49;;;;;;;2.93;2.23;;;15.40;99.90;;;;;;5087269;28;20631;-84
2022/05/19 01:35:16;;;;;;;2.43;2.33;;;15.40;99.90;;;;;;5084088;28;20631;-83
2022/05/19 01:37:43;;;;;;;3.00;2.20;;;15.30;99.90;;;;;;5086220;28;20634;-83
2022/05/19 01:40:25;;;;;;;2.40;2.20;;;15.30;99.90;;;;;;5083787;28;20743;-83
2022/05/19 01:43:05;;;;;;;2.10;2.00;;;15.30;99.90;;;;;;5085942;28;21146;-83
2022/05/19 01:45:44;;;;;;;2.33;2.23;;;15.20;99.90;;;;;;5084819;28;20735;-83
2022/05/19 01:48:16;;;;;;;2.27;2.07;;;15.20;99.90;;;;;;5085040;28;20607;-83
2022/05/19 01:50:51;;;;;;;2.53;2.33;;;15.20;99.90;;;;;;5087856;28;20675;-84
2022/05/19 01:53:26;;;;;;;3.27;2.20;;;15.20;99.90;;;;;;5082620;28;20612;-83
2022/05/19 01:56:01;;;;;;;2.10;2.00;;;15.20;99.90;;;;;;5086186;28;20669;-83
2022/05/19 01:58:34;;;;;;;2.67;2.27;;;15.10;99.90;;;;;;5080482;28;21035;-83
2022/05/19 02:01:04;;;;;;;2.20;2.00;;;15.10;99.90;;;;;;5087388;28;21021;-83
2022/05/19 02:03:38;;;;;;;3.63;2.50;;;15.10;99.90;;;;;;5087468;28;21181;-83
2022/05/19 02:06:11;;;;;;;3.50;2.07;;;15.00;99.90;;;;;;5081419;28;20635;-84
2022/05/19 02:08:42;;;;;;;3.73;2.40;;;15.00;99.90;;;;;;5083076;28;20693;-83
2022/05/19 02:11:13;;;;;;;2.60;2.40;;;15.00;99.90;;;;;;5081446;28;20687;-85
2022/05/19 02:13:42;;;;;;;2.40;2.20;;;15.00;99.90;;;;;;5086380;28;20631;-85
2022/05/19 02:16:14;;;;;;;3.83;2.73;;;14.90;99.90;;;;;;5079182;28;20647;-85
2022/05/19 02:18:42;;;;;;;2.90;2.70;;;14.80;99.90;;;;;;5081333;28;20617;-85
2022/05/19 02:21:09;;;;;;;2.57;2.37;;;14.80;99.90;;;;;;5080594;28;21466;-85
2022/05/19 02:23:37;;;;;;;3.57;2.87;;;14.80;99.90;;;;;;5082055;28;20735;-84
2022/05/19 02:26:04;;;;;;;3.33;2.27;;;14.80;99.90;;;;;;5078909;28;20726;-84
2022/05/19 02:28:34;;;;;;;3.20;2.90;;;14.80;99.90;;;;;;5087168;28;20620;-84
2022/05/19 02:31:03;;;;;;;2.90;2.70;;;14.80;99.90;;;;;;5079754;28;20737;-84
2022/05/19 02:33:31;;;;;;;4.43;2.20;;;14.80;99.90;;;;;;5079492;28;20628;-84
2022/05/19 02:35:58;;;;;;;3.10;2.20;;;14.70;99.90;;;;;;5082655;28;20655;-84
2022/05/19 02:38:25;;;;;;;3.07;2.87;;;14.70;99.90;;;;;;5079827;28;20612;-85
2022/05/19 02:40:52;;;;;;;4.17;2.60;;;14.70;99.90;;;;;;5082853;28;21024;-84
2022/05/19 02:43:19;;;;;;;3.00;2.80;;;14.60;99.90;;;;;;5080596;28;20628;-84
2022/05/19 02:45:47;;;;;;;3.17;2.50;;;14.60;99.90;;;;;;5079571;28;20620;-84
2022/05/19 02:48:17;;;;;;;3.50;2.80;;;14.60;99.90;;;;;;5082840;28;20609;-84
2022/05/19 02:50:45;;;;;;;3.57;3.10;;;14.60;99.90;;;;;;5076224;28;20776;-84
2022/05/19 02:53:12;;;;;;;2.87;2.67;;;14.60;99.90;;;;;;5083540;28;20643;-84
2022/05/19 02:55:42;;;;;;;2.80;2.60;;;14.50;99.90;;;;;;5080112;28;20655;-84
2022/05/19 02:58:09;;;;;;;3.00;2.70;;;14.50;99.90;;;;;;5074283;28;21241;-84
2022/05/19 03:00:38;;;;;;;3.30;3.10;;;14.50;99.90;;;;;;5083316;28;20656;-84
2022/05/19 03:03:04;;;;;;;4.20;2.53;;;14.50;99.90;;;;;;5080511;28;20632;-84
2022/05/19 03:05:35;;;;;;;3.30;3.10;;;14.40;99.90;;;;;;5081610;28;20644;-84
2022/05/19 03:08:02;;;;;;;5.87;2.97;;;14.40;99.90;;;;;;5083631;28;20621;-84
2022/05/19 03:10:29;;;;;;;3.33;2.87;;;14.30;99.90;;;;;;5078869;28;20647;-84
2022/05/19 03:12:56;;;;;;;2.93;2.73;;;14.30;99.90;;;;;;5083504;28;20631;-86
2022/05/19 03:15:24;;;;;;;3.77;3.00;;;14.40;99.90;;;;;;5085685;28;20624;-85
2022/05/19 03:17:51;;;;;;;2.83;2.63;;;14.30;99.90;;;;;;5085002;28;20608;-84
2022/05/19 03:20:19;;;;;;;4.10;3.40;;;14.30;99.90;;;;;;5081124;28;21025;-84
2022/05/19 03:22:47;;;;;;;4.87;3.37;;;14.30;99.90;;;;;;5086641;28;20620;-84
2022/05/19 03:25:15;;;;;;;3.37;2.90;;;14.20;99.90;;;;;;5083682;28;20747;-84
2022/05/19 03:27:43;;;;;;;3.63;3.30;;;14.20;99.90;;;;;;5082045;28;20635;-84
2022/05/19 03:30:14;;;;;;;3.30;3.00;;;14.20;99.90;;;;;;5087015;28;20654;-84
2022/05/19 03:32:41;;;;;;;2.70;2.50;;;14.10;99.90;;;;;;5074780;28;20778;-84
2022/05/19 03:35:09;;;;;;;3.30;3.00;;;14.10;99.90;;;;;;5082304;28;20631;-84
2022/05/19 03:37:36;;;;;;;4.27;3.20;;;14.10;99.90;;;;;;5085060;28;20622;-84
2022/05/19 03:40:06;;;;;;;3.53;3.23;;;14.10;99.90;;;;;;5084882;28;20670;-84
2022/05/19 03:42:33;;;;;;;3.00;2.80;;;14.10;99.90;;;;;;5082678;28;20711;-84
2022/05/19 03:45:00;;;;;;;3.30;3.00;;;14.00;99.90;;;;;;5081897;28;20629;-84
2022/05/19 03:47:26;;;;;;;3.40;3.10;;;14.00;99.90;;;;;;5082983;28;20648;-84
2022/05/19 03:49:53;;;;;;;3.70;3.40;;;14.00;99.90;;;;;;5079001;28;20625;-87
2022/05/19 03:52:20;;;;;;;3.20;2.77;;;14.00;99.90;;;;;;5084260;28;20656;-86
2022/05/19 03:54:47;;;;;;;3.17;2.87;;;14.00;99.90;;;;;;5081248;28;20636;-85
2022/05/19 03:57:17;;;;;;;4.00;3.47;;;14.00;99.90;;;;;;5086429;28;20644;-85
2022/05/19 03:59:44;;;;;;;4.60;4.20;;;14.00;99.90;;;;;;5079297;28;20633;-86
2022/05/19 04:02:11;;;;;;;3.47;3.17;;;14.00;99.90;;;;;;5085527;28;20624;-85
2022/05/19 04:04:38;;;;;;;3.27;2.80;;;14.00;99.90;;;;;;5074359;28;21230;-85
2022/05/19 04:07:05;;;;;;;3.30;3.10;;;14.10;99.90;;;;;;5079945;28;20683;-85
2022/05/19 04:09:32;;;;;;;5.10;3.30;;;14.10;99.90;;;;;;5080334;28;21186;-85
2022/05/19 04:12:00;;;;;;;3.17;2.90;;;14.10;99.90;;;;;;5087205;28;20667;-85
2022/05/19 04:14:29;;;;;;;2.90;2.60;;;14.10;99.90;;;;;;5078530;28;21380;-86
2022/05/19 04:16:56;;;;;;;3.63;3.33;;;14.10;99.90;;;;;;5080524;28;20605;-85
2022/05/19 04:19:23;;;;;;;5.43;3.20;;;14.20;99.90;;;;;;5081898;28;20651;-85
2022/05/19 04:21:50;;;;;;;3.83;2.50;;;14.20;99.90;;;;;;5084469;28;20605;-86
2022/05/19 04:24:17;;;;;;;3.27;3.07;;;14.20;99.90;;;;;;5089366;28;20615;-85
2022/05/19 04:26:44;;;;;;;2.90;2.60;;;14.20;99.90;;;;;;5090390;28;20624;-85
2022/05/19 04:29:11;;;;;;;2.70;2.50;;;14.20;99.90;;;;;;5086617;28;20629;-85
2022/05/19 04:31:39;;;;;;;3.13;2.83;;;14.20;99.90;;;;;;5087780;28;20696;-85
2022/05/19 04:34:06;;;;;;;3.30;3.00;;;14.30;99.90;;;;;;5086713;28;20685;-85
2022/05/19 04:36:33;;;;;;;3.40;3.07;;;14.30;99.90;;;;;;5083670;28;20627;-85
2022/05/19 04:39:00;;;;;;;5.20;3.07;;;14.40;99.90;;;;;;5087435;28;20648;-85
2022/05/19 04:41:28;;;;;;;3.20;2.93;;;14.40;99.90;;;;;;5076828;28;20632;-83
2022/05/19 04:43:55;;;;;;;2.97;2.50;;;14.50;99.90;;;;;;5088053;28;20623;-85
2022/05/19 04:46:22;;;;;;;2.87;2.63;;;14.50;99.90;;;;;;5085070;28;20620;-84
2022/05/19 04:48:50;;;;;;;3.60;3.00;;;14.60;99.90;;;;;;5084032;28;20651;-84
2022/05/19 04:51:17;;;;;;;4.27;3.63;;;14.70;99.90;;;;;;5087240;28;21270;-84
2022/05/19 04:53:44;;;;;;;3.33;3.03;;;14.70;99.90;;;;;;5088232;28;20624;-83
2022/05/19 04:56:10;;;;;;;4.00;3.10;;;14.80;99.90;;;;;;5087215;28;20624;-85
2022/05/19 04:58:37;;;;;;;3.60;3.40;;;14.90;99.90;;;;;;5086183;28;20650;-85
2022/05/19 05:01:06;;;;;;;5.80;3.73;;;14.90;99.90;;;;;;5089953;28;20627;-83
2022/05/19 05:03:36;;;;;;;3.20;3.00;;;15.00;99.90;;;;;;5082458;28;20635;-84
2022/05/19 05:06:04;;;;;;;7.40;4.23;;;15.10;99.90;;;;;;5080109;28;20617;-83
2022/05/19 05:08:31;;;;;;;4.10;3.50;;;15.30;99.90;;;;;;5085748;28;20652;-83
2022/05/19 05:10:58;;;;;;;6.20;3.63;;;15.40;99.90;;;;;;5086022;28;20617;-82
2022/05/19 05:13:25;;;;;;;4.30;3.40;;;15.50;99.90;;;;;;5085845;28;20694;-83
2022/05/19 05:15:52;;;;;;;3.50;3.20;;;15.50;99.90;;;;;;5083832;28;20620;-83
2022/05/19 05:18:19;;;;;;;4.07;3.50;;;15.60;99.90;;;;;;5087572;28;21154;-83
2022/05/19 05:20:46;;;;;;;3.50;3.13;;;15.80;99.90;;;;;;5089016;28;20689;-83
2022/05/19 05:23:14;;;;;;;3.90;3.00;;;15.80;99.90;;;;;;5086047;28;20960;-84
2022/05/19 05:25:41;;;;;;;4.03;3.63;;;16.00;99.90;;;;;;5085528;28;20624;-84
2022/05/19 05:28:08;;;;;;;3.90;3.57;;;16.10;99.90;;;;;;5085135;28;20658;-83
2022/05/19 05:30:35;;;;;;;3.00;2.67;;;16.20;99.90;;;;;;5085047;28;21190;-84
2022/05/19 05:33:09;;;;;;;7.37;3.23;;;16.30;99.90;;;;;;5087766;28;21114;-84
2022/05/19 05:35:36;;;;;;;3.17;2.90;;;16.50;99.90;;;;;;5085945;28;20612;-84
2022/05/19 05:38:03;;;;;;;3.77;3.47;;;16.60;99.90;;;;;;5086859;28;20656;-84
2022/05/19 05:40:31;;;;;;;4.77;2.73;;;16.60;99.90;;;;;;5087191;28;20628;-84
2022/05/19 05:43:06;;;;;;;4.10;2.97;;;16.80;99.90;;;;;;5088805;28;21181;-84
2022/05/19 05:45:32;;;;;;;3.60;3.27;;;16.80;99.90;;;;;;5085261;28;20650;-84
2022/05/19 05:47:59;;;;;;;3.57;3.27;;;17.00;99.90;;;;;;5086441;28;20640;-84
2022/05/19 05:50:26;;;;;;;8.33;3.50;;;17.00;99.90;;;;;;5087154;28;20616;-86
2022/05/19 05:52:53;;;;;;;5.10;3.23;;;17.10;99.90;;;;;;5086082;28;20664;-83
2022/05/19 05:55:20;;;;;;;6.53;3.40;;;17.20;99.90;;;;;;5087638;28;22339;-84
2022/05/19 05:57:49;;;;;;;4.00;3.70;;;17.20;99.90;;;;;;5086113;28;20979;-83
2022/05/19 06:00:16;;;;;;;6.97;3.57;;;17.20;99.90;;;;;;5081557;28;20656;-84
2022/05/19 06:02:43;;;;;;;5.10;3.77;;;17.20;99.90;;;;;;5088255;28;20640;-84
2022/05/19 06:05:11;;;;;;;3.87;3.07;;;17.10;99.90;;;;;;5085228;28;20976;-83
2022/05/19 06:07:38;;;;;;;3.87;3.33;;;17.20;99.90;;;;;;5077142;28;21566;-83
2022/05/19 06:10:06;;;;;;;7.77;3.43;;;17.30;99.90;;;;;;5087902;28;21162;-83
2022/05/19 06:12:33;;;;;;;6.10;3.13;;;17.50;99.90;;;;;;5088006;28;20651;-83
2022/05/19 06:15:01;;;;;;;6.37;3.13;;;17.60;99.90;;;;;;5087122;28;20719;-84
2022/05/19 06:17:28;;;;;;;4.43;4.03;;;17.70;99.90;;;;;;5080441;28;21092;-84
2022/05/19 06:19:54;;;;;;;3.23;2.87;;;17.80;99.90;;;;;;5081764;28;20620;-83
2022/05/19 06:22:22;;;;;;;6.93;4.33;;;17.80;99.90;;;;;;5087293;28;20714;-83
2022/05/19 06:24:49;;;;;;;5.60;4.00;;;17.90;99.90;;;;;;5086549;28;20620;-84
2022/05/19 06:27:16;;;;;;;6.13;4.07;;;18.00;99.90;;;;;;5085713;28;20644;-83
2022/05/19 06:29:44;;;;;;;6.23;3.30;;;18.10;99.90;;;;;;5083992;28;20615;-84
2022/05/19 06:32:12;;;;;;;3.60;3.30;;;18.30;99.90;;;;;;5083626;28;20655;-84
2022/05/19 06:34:39;;;;;;;6.30;4.60;;;18.40;99.90;;;;;;5086630;28;20620;-83
2022/05/19 06:37:06;;;;;;;4.57;3.93;;;18.40;99.90;;;;;;5081930;28;20679;-83
2022/05/19 06:39:33;;;;;;;5.90;4.70;;;18.60;99.90;;;;;;5083482;28;20637;-83
2022/05/19 06:42:03;;;;;;;5.93;4.27;;;18.70;99.90;;;;;;5082341;28;20620;-84
2022/05/19 06:44:31;;;;;;;6.90;4.13;;;18.80;99.90;;;;;;5084301;28;20716;-84
2022/05/19 06:46:59;;;;;;;4.00;3.00;;;18.90;99.90;;;;;;5085483;28;20971;-83
2022/05/19 06:49:27;;;;;;;5.20;3.10;;;19.00;99.90;;;;;;5084636;28;20620;-83
2022/05/19 06:51:55;;;;;;;4.53;3.73;;;19.10;99.90;;;;;;5083004;28;20635;-84
2022/05/19 06:54:22;;;;;;;5.40;4.13;;;19.20;99.90;;;;;;5082844;28;20755;-83
2022/05/19 06:56:49;;;;;;;6.20;4.20;;;19.40;99.90;;;;;;5087456;28;20624;-83
2022/05/19 06:59:17;;;;;;;4.50;3.37;;;19.50;99.90;;;;;;5087385;28;20624;-84
2022/05/19 07:01:45;;;;;;;4.87;3.40;;;19.60;99.90;;;;;;5084542;28;21150;-84
2022/05/19 07:04:12;;;;;;;3.07;2.77;;;19.70;99.90;;;;;;5085565;28;20628;-83
2022/05/19 07:06:40;;;;;;;4.10;3.10;;;19.80;99.90;;;;;;5079512;28;20636;-83
2022/05/19 07:09:07;;;;;;;3.97;3.57;;;20.00;99.90;;;;;;5080792;28;20639;-84
2022/05/19 07:11:35;;;;;;;5.10;3.60;;;20.00;99.90;;;;;;5084949;28;20631;-84
2022/05/19 07:14:04;;;;;;;6.00;3.63;;;20.20;99.90;;;;;;5086641;28;20671;-84
2022/05/19 07:16:32;;;;;;;5.00;3.30;;;20.30;99.90;;;;;;5084261;28;20620;-83
2022/05/19 07:21:43;;;;;;;4.00;3.03;;;20.40;99.90;;;;;;5083668;28;20646;-83
2022/05/19 07:24:12;;;;;;;4.73;3.03;;;20.60;99.90;;;;;;5081586;28;20629;-82
2022/05/19 07:26:39;;;;;;;7.93;3.57;;;20.60;99.90;;;;;;5081527;28;20702;-82
2022/05/19 07:29:09;;;;;;;5.87;3.13;;;20.70;99.90;;;;;;5085200;28;21109;-84
2022/05/19 07:31:37;;;;;;;3.10;2.80;;;20.80;99.90;;;;;;5086468;28;20608;-84
2022/05/19 07:34:04;;;;;;;6.10;3.47;;;21.00;99.90;;;;;;5084384;28;20746;-84
2022/05/19 07:36:32;;;;;;;3.67;3.17;;;21.10;99.70;;;;;;5086971;28;20624;-84
2022/05/19 07:39:02;;;;;;;4.97;2.80;;;21.20;99.90;;;;;;5083505;28;21186;-84
2022/05/19 07:41:30;;;;;;;3.37;3.07;;;21.20;99.10;;;;;;5082061;28;20712;-84
2022/05/19 07:43:58;;;;;;;2.87;2.60;;;21.20;99.50;;;;;;5086140;28;20604;-84
2022/05/19 07:46:25;;;;;;;6.87;3.00;;;21.40;99.60;;;;;;5087036;28;20636;-84
2022/05/19 07:48:57;;;;;;;3.20;2.90;;;21.50;99.20;;;;;;5081966;28;20661;-84
2022/05/19 07:51:26;;;;;;;4.80;3.20;;;21.60;98.90;;;;;;5086202;28;20616;-83
2022/05/19 07:54:02;;;;;;;2.80;2.60;;;21.80;98.80;;;;;;5084051;28;20652;-84
2022/05/19 07:56:29;;;;;;;7.90;3.50;;;21.70;98.90;;;;;;5080559;28;20627;-82
2022/05/19 07:58:57;;;;;;;2.90;2.70;;;21.70;98.80;;;;;;5086692;28;21194;-82
2022/05/19 08:01:25;;;;;;;3.67;3.37;;;21.80;99.20;;;;;;5087378;28;20619;-82
2022/05/19 08:03:52;;;;;;;3.27;2.97;;;21.90;99.50;;;;;;5087196;28;20670;-82
2022/05/19 08:06:21;;;;;;;3.50;2.60;;;22.00;98.40;;;;;;5083912;28;20628;-84
2022/05/19 08:08:48;;;;;;;5.20;2.80;;;22.10;98.50;;;;;;5086171;28;20729;-82
2022/05/19 08:11:16;;;;;;;3.60;2.83;;;22.30;99.00;;;;;;5087652;28;20689;-83
2022/05/19 08:16:31;;;;;;;5.37;2.97;;;22.50;98.50;;;;;;5081628;28;20568;-84
2022/05/19 08:19:01;;;;;;;3.80;2.90;;;22.50;97.70;;;;;;5086738;28;20654;-84
2022/05/19 08:21:31;;;;;;;3.67;2.60;;;22.70;98.40;;;;;;5081353;28;20626;-85
2022/05/19 08:23:59;;;;;;;4.10;3.03;;;22.90;97.80;;;;;;5082103;28;20675;-83
2022/05/19 08:26:28;;;;;;;3.10;2.50;;;23.00;97.70;;;;;;5084754;28;20608;-83
2022/05/19 08:28:56;;;;;;;5.37;3.10;;;23.10;97.60;;;;;;5085571;28;21207;-82
2022/05/19 08:31:25;;;;;;;4.00;3.13;;;23.30;97.70;;;;;;5082473;28;20634;-82
2022/05/19 08:33:54;;;;;;;3.47;2.93;;;23.40;97.90;;;;;;5085968;28;21241;-82
2022/05/19 08:36:21;;;;;;;6.30;3.03;;;23.50;96.90;;;;;;5085562;28;20636;-82
2022/05/19 08:38:48;;;;;;;6.07;3.40;;;23.60;97.50;;;;;;5083707;28;21053;-82
2022/05/19 08:41:25;;;;;;;4.60;2.50;;;23.70;97.40;;;;;;5083372;28;20637;-83
2022/05/19 08:43:58;;;;;;;4.10;2.70;;;23.80;96.50;;;;;;5076439;28;20616;-83
2022/05/19 08:46:30;;;;;;;3.00;2.70;;;23.80;96.10;;;;;;5084729;28;20743;-82
2022/05/19 08:49:03;;;;;;;9.43;3.80;;;23.90;96.70;;;;;;5083510;28;20636;-83
2022/05/19 08:51:34;;;;;;;4.07;2.83;;;24.10;96.00;;;;;;5083992;28;20672;-83
2022/05/19 08:54:06;;;;;;;4.00;3.10;;;24.20;96.10;;;;;;5082120;28;21217;-83
2022/05/19 08:56:37;;;;;;;3.80;2.70;;;24.30;96.40;;;;;;5085295;28;20623;-83
2022/05/19 08:59:24;;;;;;;3.10;2.90;;;24.30;95.60;;;;;;5085950;28;21339;-83
2022/05/19 09:01:56;;;;;;;10.50;2.97;;;24.50;95.80;;;;;;5085975;28;20658;-84
2022/05/19 09:04:34;;;;;;;2.57;2.37;;;24.70;96.10;;;;;;5082899;28;20632;-83
2022/05/19 09:10:14;;;;;;;3.10;2.70;;;24.80;94.60;;;;;;5083997;28;20626;-83
2022/05/19 09:12:43;;;;;;;3.00;2.70;;;25.00;94.90;;;;;;5084462;28;20629;-83
2022/05/19 09:15:12;;;;;;;4.50;3.27;;;25.10;94.10;;;;;;5086545;28;20968;-83
2022/05/19 09:17:43;;;;;;;4.00;2.73;;;25.20;94.60;;;;;;5082895;28;20659;-83
2022/05/19 09:20:13;;;;;;;4.13;2.77;;;25.30;94.10;;;;;;5086351;28;21042;-83
2022/05/19 09:22:40;;;;;;;6.67;2.63;;;25.40;94.20;;;;;;5083311;28;20616;-83
2022/05/19 09:25:10;;;;;;;3.60;2.53;;;25.50;94.00;;;;;;5082623;28;20627;-83
2022/05/19 09:27:40;;;;;;;3.47;2.57;;;25.70;94.00;;;;;;5085368;28;20650;-83
2022/05/19 09:30:29;;;;;;;5.33;2.50;;;25.80;93.50;;;;;;5088726;28;20677;-82
2022/05/19 09:32:57;;;;;;;3.93;3.03;;;25.80;93.40;;;;;;5089238;28;20843;-83
2022/05/19 09:35:35;;;;;;;2.87;2.07;;;26.00;93.30;;;;;;5083158;28;20636;-83
2022/05/19 09:38:12;;;;;;;3.80;3.23;;;26.20;93.20;;;;;;5083701;28;20659;-83
2022/05/19 09:40:44;;;;;;;5.63;3.00;;;26.40;92.90;;;;;;5088551;28;20692;-83
2022/05/19 09:43:17;;;;;;;5.77;3.40;;;26.30;92.70;;;;;;5082965;28;20627;-83
2022/05/19 09:45:53;;;;;;;5.30;3.00;;;26.50;92.90;;;;;;5082416;28;20752;-83
2022/05/19 09:48:33;;;;;;;3.87;3.10;;;26.70;93.40;;;;;;5085343;28;20648;-83
2022/05/19 09:51:10;;;;;;;4.20;2.70;;;26.90;92.40;;;;;;5084752;28;20631;-82
2022/05/19 09:53:41;;;;;;;3.77;2.80;;;27.00;92.20;;;;;;5084354;28;20667;-82
2022/05/19 09:56:12;;;;;;;3.63;3.17;;;27.10;92.10;;;;;;5087069;28;20688;-82
2022/05/19 09:58:43;;;;;;;3.53;2.90;;;27.30;92.00;;;;;;5085152;28;20641;-82
2022/05/19 10:01:20;;;;;;;3.17;2.87;;;27.20;91.60;;;;;;5084733;28;20650;-82
2022/05/19 10:03:52;;;;;;;3.30;3.00;;;27.30;91.50;;;;;;5085027;28;20631;-82
2022/05/19 10:06:21;;;;;;;3.80;2.93;;;27.50;91.80;;;;;;5074978;28;20628;-83
2022/05/19 10:08:58;;;;;;;4.57;3.30;;;27.50;91.50;;;;;;5083923;28;20697;-83
2022/05/19 10:11:29;;;;;;;3.30;3.10;;;27.60;91.00;;;;;;5083425;28;20613;-83
2022/05/19 10:13:58;;;;;;;5.40;3.80;;;27.80;91.40;;;;;;5081898;28;20772;-84
2022/05/19 10:16:34;;;;;;;6.40;2.90;;;27.90;91.00;;;;;;5083569;28;20624;-83
2022/05/19 10:19:14;;;;;;;2.97;2.77;;;28.10;91.00;;;;;;5084276;28;20655;-83
2022/05/19 10:22:08;;;;;;;7.17;3.37;;;28.20;90.90;;;;;;5080230;28;21179;-84
2022/05/19 10:25:02;;;;;;;3.63;2.83;;;28.30;90.30;;;;;;5083282;28;20624;-83
2022/05/19 10:33:21;;;;;;;4.00;3.30;;;28.70;90.00;;;;;;5085688;28;20627;-83
2022/05/19 10:36:02;;;;;;;3.63;3.37;;;29.00;89.40;;;;;;5083923;28;20619;-84
2022/05/19 10:38:53;;;;;;;4.77;3.37;;;29.30;89.60;;;;;;5080516;28;20675;-84
2022/05/19 10:41:35;;;;;;;4.00;3.70;;;29.40;88.30;;;;;;5081242;28;21166;-83
2022/05/19 10:44:18;;;;;;;3.70;3.00;;;29.70;88.70;;;;;;5085080;28;20621;-83
2022/05/19 10:46:54;;;;;;;3.97;3.20;;;30.00;88.10;;;;;;5079948;28;20715;-83
2022/05/19 10:50:01;;;;;;;4.37;3.50;;;30.10;86.50;;;;;;5084287;28;20608;-84
2022/05/19 10:52:40;;;;;;;4.20;3.67;;;30.30;85.40;;;;;;5073488;28;20636;-83
2022/05/19 10:55:15;;;;;;;4.40;3.50;;;30.40;84.30;;;;;;5081992;28;20671;-83
2022/05/19 10:58:05;;;;;;;3.60;3.30;;;30.60;84.50;;;;;;5083288;28;20656;-83
2022/05/19 11:00:44;;;;;;;3.97;3.60;;;30.90;84.40;;;;;;5080626;28;20626;-84
2022/05/19 11:03:40;;;;;;;3.43;3.10;;;31.10;83.20;;;;;;5081128;28;20681;-83
2022/05/19 11:06:18;;;;;;;3.87;3.57;;;31.30;82.50;;;;;;5075898;28;20617;-83
2022/05/19 11:08:56;;;;;;;5.13;3.40;;;31.50;82.30;;;;;;5078351;28;20657;-83
2022/05/19 11:11:30;;;;;;;4.53;3.80;;;31.70;82.00;;;;;;5085932;28;20623;-84
2022/05/19 11:14:12;;;;;;;5.10;3.40;;;32.00;81.80;;;;;;5082049;28;20656;-83
2022/05/19 11:16:47;;;;;;;4.10;3.70;;;32.30;80.00;;;;;;5082479;28;20685;-83
2022/05/19 11:19:19;;;;;;;5.10;3.20;;;32.50;80.30;;;;;;5082024;28;20635;-83
2022/05/19 11:21:51;;;;;;;5.43;3.80;;;32.80;79.70;;;;;;5081579;28;21225;-83
2022/05/19 11:24:23;;;;;;;3.93;3.60;;;33.10;78.70;;;;;;5078564;28;20631;-83
2022/05/19 11:26:56;;;;;;;4.57;4.17;;;33.40;77.70;;;;;;5081045;28;21182;-83
2022/05/19 11:29:31;;;;;;;4.10;3.20;;;33.60;75.00;;;;;;5079942;28;20622;-83
2022/05/19 11:32:04;;;;;;;3.63;3.30;;;33.80;75.80;;;;;;5083978;28;20623;-83
2022/05/19 11:34:37;;;;;;;6.70;3.90;;;34.10;74.00;;;;;;5079497;28;20900;-84
2022/05/19 11:37:15;;;;;;;6.40;3.10;;;34.50;74.00;;;;;;5084923;28;20650;-83
2022/05/19 11:40:00;;;;;;;7.80;3.63;;;34.80;72.80;;;;;;5078904;28;20624;-83
2022/05/19 11:42:35;;;;;;;7.23;4.00;;;35.10;71.10;;;;;;5081991;28;21051;-83
2022/05/19 11:45:05;;;;;;;4.10;3.27;;;35.30;70.00;;;;;;5080660;28;20606;-83
2022/05/19 11:56:18;;;;;;;3.80;3.40;;;36.30;66.80;;;;;;5058947;28;20321;-83
2022/05/19 11:58:45;;;;;;;3.80;3.47;;;36.60;65.10;;;;;;5075803;28;21304;-83
2022/05/19 12:01:20;;;;;;;6.60;3.37;;;36.80;63.50;;;;;;5082777;28;20206;-83
2022/05/19 12:04:04;;;;;;;3.53;3.20;;;37.10;62.50;;;;;;5079438;28;20205;-83
2022/05/19 12:06:34;;;;;;;4.80;3.73;;;37.40;62.30;;;;;;5072761;28;20216;-83
2022/05/19 12:09:07;;;;;;;6.65;3.45;;;37.60;60.90;;;;;;5079796;28;20219;-83
2022/05/19 12:11:52;;;;;;;5.15;3.83;;;37.70;61.30;;;;;;5066438;28;20206;-83
2022/05/19 12:14:31;;;;;;;3.60;3.30;;;37.70;59.30;;;;;;5080758;28;20222;-83
2022/05/19 12:17:11;;;;;;;4.00;3.58;;;38.00;59.50;;;;;;5078278;28;20224;-84
2022/05/19 12:19:41;;;;;;;4.70;3.17;;;38.40;58.30;;;;;;5075079;28;20201;-83
2022/05/19 12:22:14;;;;;;;4.03;3.20;;;38.60;57.60;;;;;;5077208;28;20205;-84
2022/05/19 12:24:53;;;;;;;4.25;3.83;;;38.70;56.60;;;;;;5076860;28;20266;-84
2022/05/19 12:27:23;;;;;;;3.70;3.40;;;38.70;55.20;;;;;;5077474;28;20213;-84
2022/05/19 12:30:00;;;;;;;4.15;3.25;;;38.30;55.10;;;;;;5077887;28;20201;-83
2022/05/19 12:32:36;;;;;;;5.35;3.95;;;38.60;55.80;;;;;;5080598;28;20763;-84
2022/05/19 12:35:06;;;;;;;5.65;3.30;;;39.00;56.20;;;;;;5078014;28;20276;-84
2022/05/19 12:37:38;;;;;;;3.80;2.65;;;39.40;55.50;;;;;;5074918;28;20236;-84
2022/05/19 12:40:56;;;;;;;6.70;3.33;;;39.50;54.10;;;;;;5081932;28;20665;-84
2022/05/19 12:43:35;;;;;;;3.47;3.28;;;39.80;54.60;;;;;;5075595;28;20206;-84
2022/05/19 12:46:03;;;;;;;5.88;3.00;;;40.10;53.20;;;;;;5068835;28;20217;-84
2022/05/19 12:48:50;;;;;;;4.13;3.42;;;40.30;51.80;;;;;;5077740;28;20229;-84
2022/05/19 12:51:26;;;;;;;3.28;3.08;;;40.40;52.30;;;;;;5081257;28;20673;-83
2022/05/19 12:54:10;;;;;;;4.57;3.42;;;40.10;52.20;;;;;;5074576;28;20699;-84
2022/05/19 12:56:59;;;;;;;5.15;4.10;;;40.30;50.90;;;;;;5083545;28;20227;-84
2022/05/19 12:59:47;;;;;;;4.03;3.50;;;40.20;50.00;;;;;;5080701;28;20229;-84
2022/05/19 13:02:24;;;;;;;4.00;2.97;;;40.10;50.50;;;;;;5085492;28;20205;-84
2022/05/19 13:04:55;;;;;;;5.03;3.00;;;40.20;49.80;;;;;;5083150;28;20226;-83
2022/05/19 13:07:29;;;;;;;4.00;3.53;;;40.50;50.50;;;;;;5084310;28;20221;-83
2022/05/19 13:10:04;;;;;;;6.90;3.47;;;40.70;49.60;;;;;;5083766;28;20205;-83
2022/05/19 13:12:44;;;;;;;3.17;2.90;;;41.00;50.10;;;;;;5080952;28;20296;-84
2022/05/19 13:15:12;;;;;;;4.72;4.03;;;41.20;49.70;;;;;;5082188;28;20220;-84
2022/05/19 13:17:43;;;;;;;6.20;3.40;;;40.70;48.50;;;;;;5079562;28;20226;-84
2022/05/19 13:20:16;;;;;;;4.40;3.53;;;40.50;48.30;;;;;;5077359;28;20266;-83
2022/05/19 13:22:49;;;;;;;3.47;3.28;;;40.40;49.70;;;;;;5081905;28;20198;-83
2022/05/19 13:25:17;;;;;;;4.68;3.50;;;40.20;49.50;;;;;;5080413;28;20202;-83
2022/05/19 13:30:43;;;;;;;3.55;3.08;;;40.30;48.70;;;;;;5080136;28;20197;-84
2022/05/19 13:33:12;;;;;;;3.97;3.50;;;40.40;48.00;;;;;;5077715;28;20219;-83